sensor_id;sensor_type;location;lat;lon;timestamp;pressure;altitude;pressure_sealevel;temperature;humidity
71424;BME280;59240;51.370;-0.486;2023-02-02T00:01:23;102580.22;;;10.02;67.71
71424;BME280;59240;51.370;-0.486;2023-02-02T00:03:50;102575.81;;;9.92;68.00
71424;BME280;59240;51.370;-0.486;2023-02-02T00:06:18;102595.03;;;10.06;67.85
71424;BME280;59240;51.370;-0.486;2023-02-02T00:08:46;102590.63;;;9.99;67.80
71424;BME280;59240;51.370;-0.486;2023-02-02T00:11:14;102567.06;;;9.85;68.21
71424;BME280;59240;51.370;-0.486;2023-02-02T00:13:40;102603.69;;;10.03;68.69
71424;BME280;59240;51.370;-0.486;2023-02-02T00:19:00;102596.75;;;10.05;67.89
71424;BME280;59240;51.370;-0.486;2023-02-02T00:21:28;102576.66;;;9.91;68.39
71424;BME280;59240;51.370;-0.486;2023-02-02T00:23:55;102590.69;;;10.08;67.50
71424;BME280;59240;51.370;-0.486;2023-02-02T00:26:22;102575.00;;;9.96;68.30
71424;BME280;59240;51.370;-0.486;2023-02-02T00:28:48;102580.22;;;9.99;68.08
71424;BME280;59240;51.370;-0.486;2023-02-02T00:31:15;102583.69;;;9.98;68.05
71424;BME280;59240;51.370;-0.486;2023-02-02T00:33:46;102562.78;;;9.93;67.87
71424;BME280;59240;51.370;-0.486;2023-02-02T00:36:13;102582.88;;;10.03;67.97
71424;BME280;59240;51.370;-0.486;2023-02-02T00:38:40;102562.81;;;9.95;67.75
71424;BME280;59240;51.370;-0.486;2023-02-02T00:41:06;102544.50;;;9.87;67.59
71424;BME280;59240;51.370;-0.486;2023-02-02T00:43:33;102552.31;;;9.87;68.48
71424;BME280;59240;51.370;-0.486;2023-02-02T00:46:00;102562.78;;;9.93;68.03
71424;BME280;59240;51.370;-0.486;2023-02-02T00:48:27;102580.28;;;10.05;68.60
71424;BME280;59240;51.370;-0.486;2023-02-02T00:50:54;102575.94;;;10.04;68.60
71424;BME280;59240;51.370;-0.486;2023-02-02T00:53:21;102581.16;;;10.07;66.94
71424;BME280;59240;51.370;-0.486;2023-02-02T00:55:47;102548.03;;;9.89;67.86
71424;BME280;59240;51.370;-0.486;2023-02-02T00:58:14;102573.25;;;9.98;66.74
71424;BME280;59240;51.370;-0.486;2023-02-02T01:00:41;102563.69;;;9.95;67.68
71424;BME280;59240;51.370;-0.486;2023-02-02T01:03:08;102589.88;;;10.09;68.48
71424;BME280;59240;51.370;-0.486;2023-02-02T01:05:35;102565.44;;;9.98;68.01
71424;BME280;59240;51.370;-0.486;2023-02-02T01:08:02;102562.00;;;10.00;68.17
71424;BME280;59240;51.370;-0.486;2023-02-02T01:10:28;102523.63;;;9.78;68.22
71424;BME280;59240;51.370;-0.486;2023-02-02T01:12:55;102552.44;;;9.98;68.04
71424;BME280;59240;51.370;-0.486;2023-02-02T01:15:22;102568.13;;;10.07;67.48
71424;BME280;59240;51.370;-0.486;2023-02-02T01:17:49;102563.78;;;10.03;67.84
71424;BME280;59240;51.370;-0.486;2023-02-02T01:20:17;102550.66;;;9.94;68.51
71424;BME280;59240;51.370;-0.486;2023-02-02T01:22:45;102538.41;;;9.83;67.62
71424;BME280;59240;51.370;-0.486;2023-02-02T01:25:12;102583.75;;;10.07;67.98
71424;BME280;59240;51.370;-0.486;2023-02-02T01:27:39;102555.84;;;9.92;67.49
71424;BME280;59240;51.370;-0.486;2023-02-02T01:30:06;102550.59;;;9.87;67.89
71424;BME280;59240;51.370;-0.486;2023-02-02T01:32:33;102539.28;;;9.82;68.00
71424;BME280;59240;51.370;-0.486;2023-02-02T01:35:00;102581.13;;;10.05;68.45
71424;BME280;59240;51.370;-0.486;2023-02-02T01:37:26;102565.47;;;10.01;67.71
71424;BME280;59240;51.370;-0.486;2023-02-02T01:39:53;102556.72;;;9.91;67.79
71424;BME280;59240;51.370;-0.486;2023-02-02T01:42:22;102579.41;;;10.06;69.00
71424;BME280;59240;51.370;-0.486;2023-02-02T01:45:03;102561.06;;;9.94;69.10
71424;BME280;59240;51.370;-0.486;2023-02-02T01:47:35;102575.00;;;10.02;68.80
71424;BME280;59240;51.370;-0.486;2023-02-02T01:50:04;102554.13;;;9.93;67.73
71424;BME280;59240;51.370;-0.486;2023-02-02T01:52:32;102545.34;;;9.81;68.36
71424;BME280;59240;51.370;-0.486;2023-02-02T01:55:03;102533.09;;;9.74;68.56
71424;BME280;59240;51.370;-0.486;2023-02-02T01:57:39;102566.31;;;9.95;68.09
71424;BME280;59240;51.370;-0.486;2023-02-02T02:00:10;102572.34;;;9.94;69.26
71424;BME280;59240;51.370;-0.486;2023-02-02T02:02:39;102553.19;;;9.87;67.94
71424;BME280;59240;51.370;-0.486;2023-02-02T02:05:08;102545.31;;;9.78;68.34
71424;BME280;59240;51.370;-0.486;2023-02-02T02:07:35;102547.97;;;9.83;68.17
71424;BME280;59240;51.370;-0.486;2023-02-02T02:10:03;102503.47;;;9.57;68.36
71424;BME280;59240;51.370;-0.486;2023-02-02T02:12:29;102534.75;;;9.65;69.28
71424;BME280;59240;51.370;-0.486;2023-02-02T02:14:56;102550.44;;;9.69;68.82
71424;BME280;59240;51.370;-0.486;2023-02-02T02:18:15;102555.56;;;9.63;70.15
71424;BME280;59240;51.370;-0.486;2023-02-02T02:36:07;102550.94;;;9.36;69.64
71424;BME280;59240;51.370;-0.486;2023-02-02T02:38:40;102540.38;;;9.21;69.18
71424;BME280;59240;51.370;-0.486;2023-02-02T02:41:21;102549.84;;;9.17;69.73
71424;BME280;59240;51.370;-0.486;2023-02-02T02:44:18;102502.63;;;8.84;70.55
71424;BME280;59240;51.370;-0.486;2023-02-02T02:46:46;102530.50;;;8.94;70.07
71424;BME280;59240;51.370;-0.486;2023-02-02T02:49:13;102531.28;;;8.88;69.67
71424;BME280;59240;51.370;-0.486;2023-02-02T02:51:51;102559.97;;;8.96;70.31
71424;BME280;59240;51.370;-0.486;2023-02-02T02:54:24;102566.88;;;8.94;70.63
71424;BME280;59240;51.370;-0.486;2023-02-02T03:05:00;102561.34;;;8.69;70.56
71424;BME280;59240;51.370;-0.486;2023-02-02T03:10:28;102551.56;;;8.52;69.87
71424;BME280;59240;51.370;-0.486;2023-02-02T03:12:56;102562.84;;;8.52;70.42
71424;BME280;59240;51.370;-0.486;2023-02-02T03:15:23;102542.72;;;8.39;69.96
71424;BME280;59240;51.370;-0.486;2023-02-02T03:17:51;102525.09;;;8.21;70.38
71424;BME280;59240;51.370;-0.486;2023-02-02T03:20:19;102535.59;;;8.29;70.31
71424;BME280;59240;51.370;-0.486;2023-02-02T03:22:45;102536.34;;;8.21;70.91
71424;BME280;59240;51.370;-0.486;2023-02-02T03:25:12;102546.72;;;8.21;70.57
71424;BME280;59240;51.370;-0.486;2023-02-02T03:27:38;102548.38;;;8.16;71.11
71424;BME280;59240;51.370;-0.486;2023-02-02T03:30:08;102544.00;;;8.14;70.88
71424;BME280;59240;51.370;-0.486;2023-02-02T03:32:36;102564.03;;;8.22;71.53
71424;BME280;59240;51.370;-0.486;2023-02-02T03:35:03;102536.84;;;7.98;70.93
71424;BME280;59240;51.370;-0.486;2023-02-02T03:37:30;102577.75;;;8.12;72.32
71424;BME280;59240;51.370;-0.486;2023-02-02T03:39:56;102568.97;;;8.04;71.87
71424;BME280;59240;51.370;-0.486;2023-02-02T03:42:23;102583.69;;;8.07;71.99
71424;BME280;59240;51.370;-0.486;2023-02-02T03:44:49;102570.56;;;7.96;72.04
71424;BME280;59240;51.370;-0.486;2023-02-02T03:47:16;102574.88;;;7.97;72.64
71424;BME280;59240;51.370;-0.486;2023-02-02T03:49:43;102572.19;;;7.92;72.29
71424;BME280;59240;51.370;-0.486;2023-02-02T03:52:09;102561.69;;;7.85;72.43
71424;BME280;59240;51.370;-0.486;2023-02-02T03:54:36;102551.19;;;7.79;72.42
71424;BME280;59240;51.370;-0.486;2023-02-02T03:57:02;102576.56;;;7.95;73.38
71424;BME280;59240;51.370;-0.486;2023-02-02T03:59:29;102528.50;;;7.67;72.75
71424;BME280;59240;51.370;-0.486;2023-02-02T04:01:55;102571.31;;;7.90;72.80
71424;BME280;59240;51.370;-0.486;2023-02-02T04:04:22;102564.25;;;7.83;73.12
71424;BME280;59240;51.370;-0.486;2023-02-02T04:06:49;102561.69;;;7.85;73.13
71424;BME280;59240;51.370;-0.486;2023-02-02T04:09:15;102556.34;;;7.76;73.41
71424;BME280;59240;51.370;-0.486;2023-02-02T04:11:42;102535.28;;;7.60;73.88
71424;BME280;59240;51.370;-0.486;2023-02-02T04:14:09;102558.09;;;7.77;74.30
71424;BME280;59240;51.370;-0.486;2023-02-02T04:16:36;102550.16;;;7.69;73.79
71424;BME280;59240;51.370;-0.486;2023-02-02T04:19:03;102549.38;;;7.75;73.32
71424;BME280;59240;51.370;-0.486;2023-02-02T04:21:30;102563.31;;;7.78;73.55
71424;BME280;59240;51.370;-0.486;2023-02-02T04:23:57;102558.09;;;7.77;73.41
71424;BME280;59240;51.370;-0.486;2023-02-02T04:26:23;102514.44;;;7.54;73.68
71424;BME280;59240;51.370;-0.486;2023-02-02T04:28:52;102551.09;;;7.73;73.66
71424;BME280;59240;51.370;-0.486;2023-02-02T04:31:18;102558.94;;;7.76;74.47
71424;BME280;59240;51.370;-0.486;2023-02-02T04:33:45;102539.78;;;7.69;73.54
71424;BME280;59240;51.370;-0.486;2023-02-02T04:36:12;102554.56;;;7.75;74.04
71424;BME280;59240;51.370;-0.486;2023-02-02T04:38:38;102554.56;;;7.75;74.24
71424;BME280;59240;51.370;-0.486;2023-02-02T04:41:07;102534.56;;;7.67;74.13
71424;BME280;59240;51.370;-0.486;2023-02-02T04:43:35;102525.00;;;7.63;74.52
71424;BME280;59240;51.370;-0.486;2023-02-02T04:46:02;102579.22;;;7.98;74.28
71424;BME280;59240;51.370;-0.486;2023-02-02T04:48:29;102549.56;;;7.84;73.78
71424;BME280;59240;51.370;-0.486;2023-02-02T04:51:00;102570.56;;;7.96;74.03
71424;BME280;59240;51.370;-0.486;2023-02-02T04:53:27;102567.09;;;7.97;74.09
71424;BME280;59240;51.370;-0.486;2023-02-02T04:55:54;102526.97;;;7.77;74.04
71424;BME280;59240;51.370;-0.486;2023-02-02T04:58:21;102559.22;;;7.91;73.66
71424;BME280;59240;51.370;-0.486;2023-02-02T05:00:48;102584.47;;;8.01;73.28
71424;BME280;59240;51.370;-0.486;2023-02-02T05:03:15;102582.69;;;7.99;74.05
71424;BME280;59240;51.370;-0.486;2023-02-02T05:05:41;102565.19;;;7.88;73.80
71424;BME280;59240;51.370;-0.486;2023-02-02T05:08:08;102559.03;;;7.82;73.30
71424;BME280;59240;51.370;-0.486;2023-02-02T05:10:40;102567.75;;;7.85;74.21
71424;BME280;59240;51.370;-0.486;2023-02-02T05:13:08;102529.16;;;7.55;74.06
71424;BME280;59240;51.370;-0.486;2023-02-02T05:15:34;102554.56;;;7.73;73.74
71424;BME280;59240;51.370;-0.486;2023-02-02T05:18:01;102575.41;;;7.78;73.71
71424;BME280;59240;51.370;-0.486;2023-02-02T05:20:28;102548.25;;;7.60;73.37
71424;BME280;59240;51.370;-0.486;2023-02-02T05:22:54;102565.69;;;7.67;74.28
71424;BME280;59240;51.370;-0.486;2023-02-02T05:25:21;102501.88;;;7.29;74.60
71424;BME280;59240;51.370;-0.486;2023-02-02T05:27:48;102520.03;;;7.30;74.29
71424;BME280;59240;51.370;-0.486;2023-02-02T05:30:15;102562.06;;;7.58;74.21
71424;BME280;59240;51.370;-0.486;2023-02-02T05:32:42;102545.38;;;7.45;73.77
71424;BME280;59240;51.370;-0.486;2023-02-02T05:35:09;102520.88;;;7.28;74.52
71424;BME280;59240;51.370;-0.486;2023-02-02T05:37:36;102531.28;;;7.31;73.73
71424;BME280;59240;51.370;-0.486;2023-02-02T05:40:03;102534.66;;;7.27;73.74
71424;BME280;59240;51.370;-0.486;2023-02-02T05:42:30;102520.63;;;7.16;75.02
71424;BME280;59240;51.370;-0.486;2023-02-02T05:44:56;102542.38;;;7.24;74.33
71424;BME280;59240;51.370;-0.486;2023-02-02T05:47:23;102577.28;;;7.41;74.57
71424;BME280;59240;51.370;-0.486;2023-02-02T05:49:50;102578.13;;;7.40;74.87
71424;BME280;59240;51.370;-0.486;2023-02-02T05:52:18;102569.19;;;7.26;76.22
71424;BME280;59240;51.370;-0.486;2023-02-02T05:54:47;102590.16;;;7.35;75.53
71424;BME280;59240;51.370;-0.486;2023-02-02T05:57:13;102564.75;;;7.20;75.12
71424;BME280;59240;51.370;-0.486;2023-02-02T05:59:40;102565.53;;;7.15;75.09
71424;BME280;59240;51.370;-0.486;2023-02-02T06:02:07;102591.81;;;7.33;75.46
71424;BME280;59240;51.370;-0.486;2023-02-02T06:04:33;102583.13;;;7.31;75.09
71424;BME280;59240;51.370;-0.486;2023-02-02T06:07:00;102556.81;;;7.11;74.99
71424;BME280;59240;51.370;-0.486;2023-02-02T06:09:26;102576.06;;;7.24;75.06
71424;BME280;59240;51.370;-0.486;2023-02-02T06:11:53;102588.28;;;7.28;75.00
71424;BME280;59240;51.370;-0.486;2023-02-02T06:14:20;102603.97;;;7.35;75.18
71424;BME280;59240;51.370;-0.486;2023-02-02T06:16:46;102586.44;;;7.24;75.37
71424;BME280;59240;51.370;-0.486;2023-02-02T06:19:13;102602.13;;;7.30;75.14
71424;BME280;59240;51.370;-0.486;2023-02-02T06:21:39;102546.94;;;6.93;74.90
71424;BME280;59240;51.370;-0.486;2023-02-02T06:24:06;102562.69;;;7.04;74.96
71424;BME280;59240;51.370;-0.486;2023-02-02T06:26:33;102588.09;;;7.20;74.92
71424;BME280;59240;51.370;-0.486;2023-02-02T06:28:59;102556.53;;;6.99;75.33
71424;BME280;59240;51.370;-0.486;2023-02-02T06:31:26;102535.56;;;6.87;75.97
71424;BME280;59240;51.370;-0.486;2023-02-02T06:33:55;102563.38;;;6.95;75.86
71424;BME280;59240;51.370;-0.486;2023-02-02T06:36:27;102591.22;;;7.05;76.45
71424;BME280;59240;51.370;-0.486;2023-02-02T06:38:58;102503.00;;;6.58;76.04
71424;BME280;59240;51.370;-0.486;2023-02-02T06:41:25;102537.97;;;6.79;76.71
71424;BME280;59240;51.370;-0.486;2023-02-02T06:43:52;102573.94;;;7.04;76.17
71424;BME280;59240;51.370;-0.486;2023-02-02T06:46:18;102558.13;;;6.92;76.96
71424;BME280;59240;51.370;-0.486;2023-02-02T06:48:45;102575.75;;;7.08;75.93
71424;BME280;59240;51.370;-0.486;2023-02-02T06:51:12;102563.53;;;7.01;76.30
71424;BME280;59240;51.370;-0.486;2023-02-02T06:53:38;102606.28;;;7.22;76.76
71424;BME280;59240;51.370;-0.486;2023-02-02T06:56:08;102596.63;;;7.15;75.95
71424;BME280;59240;51.370;-0.486;2023-02-02T06:58:39;102554.63;;;6.90;77.02
71424;BME280;59240;51.370;-0.486;2023-02-02T07:01:08;102573.81;;;6.98;76.67
71424;BME280;59240;51.370;-0.486;2023-02-02T07:03:36;102585.28;;;7.09;76.18
71424;BME280;59240;51.370;-0.486;2023-02-02T07:06:12;102622.72;;;7.24;77.65
71424;BME280;59240;51.370;-0.486;2023-02-02T07:08:42;102609.63;;;7.16;76.59
71424;BME280;59240;51.370;-0.486;2023-02-02T07:11:09;102633.94;;;7.21;76.22
71424;BME280;59240;51.370;-0.486;2023-02-02T07:13:42;102626.91;;;7.17;76.55
71424;BME280;59240;51.370;-0.486;2023-02-02T07:16:12;102575.22;;;6.84;76.15
71424;BME280;59240;51.370;-0.486;2023-02-02T07:18:42;102595.34;;;6.96;77.42
71424;BME280;59240;51.370;-0.486;2023-02-02T07:21:18;102627.72;;;7.15;77.09
71424;BME280;59240;51.370;-0.486;2023-02-02T07:23:45;102605.03;;;7.04;76.28
71424;BME280;59240;51.370;-0.486;2023-02-02T07:26:13;102625.06;;;7.11;76.47
71424;BME280;59240;51.370;-0.486;2023-02-02T07:28:41;102583.03;;;6.85;76.56
71424;BME280;59240;51.370;-0.486;2023-02-02T07:31:15;102616.09;;;6.97;76.76
71424;BME280;59240;51.370;-0.486;2023-02-02T07:33:47;102627.47;;;7.02;76.96
71424;BME280;59240;51.370;-0.486;2023-02-02T07:36:16;102588.81;;;6.74;77.11
71424;BME280;59240;51.370;-0.486;2023-02-02T07:38:45;102594.00;;;6.74;77.31
71424;BME280;59240;51.370;-0.486;2023-02-02T07:41:13;102639.44;;;6.99;77.07
71424;BME280;59240;51.370;-0.486;2023-02-02T07:43:46;102553.88;;;6.56;77.33
71424;BME280;59240;51.370;-0.486;2023-02-02T07:46:13;102627.47;;;7.02;77.91
71424;BME280;59240;51.370;-0.486;2023-02-02T07:48:40;102611.72;;;6.93;77.54
71424;BME280;59240;51.370;-0.486;2023-02-02T07:51:14;102623.25;;;7.07;77.46
71424;BME280;59240;51.370;-0.486;2023-02-02T07:53:43;102589.06;;;6.86;77.62
71424;BME280;59240;51.370;-0.486;2023-02-02T07:56:17;102592.72;;;6.94;77.88
71424;BME280;59240;51.370;-0.486;2023-02-02T07:58:44;102603.31;;;7.05;78.19
71424;BME280;59240;51.370;-0.486;2023-02-02T08:01:13;102634.78;;;7.22;78.61
71424;BME280;59240;51.370;-0.486;2023-02-02T08:03:41;102592.91;;;7.03;78.14
71424;BME280;59240;51.370;-0.486;2023-02-02T08:06:11;102619.38;;;7.28;78.48
71424;BME280;59240;51.370;-0.486;2023-02-02T08:08:42;102552.00;;;6.87;78.61
71424;BME280;59240;51.370;-0.486;2023-02-02T08:11:10;102634.38;;;7.43;78.87
71424;BME280;59240;51.370;-0.486;2023-02-02T08:13:38;102615.22;;;7.36;79.11
71424;BME280;59240;51.370;-0.486;2023-02-02T08:16:11;102620.69;;;7.50;79.27
71424;BME280;59240;51.370;-0.486;2023-02-02T08:18:50;102613.03;;;7.56;79.33
71424;BME280;59240;51.370;-0.486;2023-02-02T08:21:17;102592.09;;;7.47;78.94
71424;BME280;59240;51.370;-0.486;2023-02-02T08:23:44;102614.97;;;7.67;79.66
71424;BME280;59240;51.370;-0.486;2023-02-02T08:26:27;102625.72;;;7.86;81.36
71424;BME280;59240;51.370;-0.486;2023-02-02T08:29:07;102624.94;;;7.90;80.60
71424;BME280;59240;51.370;-0.486;2023-02-02T08:31:38;102681.91;;;8.31;80.45
71424;BME280;59240;51.370;-0.486;2023-02-02T08:34:07;102620.91;;;8.07;79.27
71424;BME280;59240;51.370;-0.486;2023-02-02T08:36:36;102635.06;;;8.25;79.34
71424;BME280;59240;51.370;-0.486;2023-02-02T08:39:05;102617.75;;;8.23;79.69
71424;BME280;59240;51.370;-0.486;2023-02-02T08:41:33;102630.09;;;8.37;79.80
71424;BME280;59240;51.370;-0.486;2023-02-02T08:44:11;102687.91;;;8.76;80.15
71424;BME280;59240;51.370;-0.486;2023-02-02T08:46:39;102685.47;;;8.86;80.01
71424;BME280;59240;51.370;-0.486;2023-02-02T08:49:10;102655.81;;;8.74;79.71
71424;BME280;59240;51.370;-0.486;2023-02-02T08:51:37;102656.81;;;8.83;79.16
71424;BME280;59240;51.370;-0.486;2023-02-02T08:54:04;102668.25;;;8.94;78.87
71424;BME280;59240;51.370;-0.486;2023-02-02T08:56:30;102664.03;;;9.02;79.11
71424;BME280;59240;51.370;-0.486;2023-02-02T08:59:00;102646.69;;;9.01;79.50
71424;BME280;59240;51.370;-0.486;2023-02-02T09:01:31;102611.78;;;8.84;79.13
71424;BME280;59240;51.370;-0.486;2023-02-02T09:04:07;102698.41;;;9.40;79.05
71424;BME280;59240;51.370;-0.486;2023-02-02T09:06:38;102657.41;;;9.22;78.63
71424;BME280;59240;51.370;-0.486;2023-02-02T09:09:13;102612.06;;;9.02;78.73
71424;BME280;59240;51.370;-0.486;2023-02-02T09:11:41;102646.22;;;9.31;77.81
71424;BME280;59240;51.370;-0.486;2023-02-02T09:14:11;102634.88;;;9.24;78.82
71424;BME280;59240;51.370;-0.486;2023-02-02T09:16:38;102699.56;;;9.65;79.29
71424;BME280;59240;51.370;-0.486;2023-02-02T09:19:12;102704.84;;;9.71;79.25
71424;BME280;59240;51.370;-0.486;2023-02-02T09:21:41;102619.34;;;9.30;79.15
71424;BME280;59240;51.370;-0.486;2023-02-02T09:24:10;102675.28;;;9.66;78.28
71424;BME280;59240;51.370;-0.486;2023-02-02T09:26:37;102674.56;;;9.76;78.70
71424;BME280;59240;51.370;-0.486;2023-02-02T09:29:09;102708.75;;;10.07;78.86
71424;BME280;59240;51.370;-0.486;2023-02-02T09:31:37;102682.63;;;9.98;77.42
71424;BME280;59240;51.370;-0.486;2023-02-02T09:34:06;102694.09;;;10.17;78.56
71424;BME280;59240;51.370;-0.486;2023-02-02T09:36:41;102696.72;;;10.20;77.92
71424;BME280;59240;51.370;-0.486;2023-02-02T09:39:10;102677.56;;;10.13;76.93
71424;BME280;59240;51.370;-0.486;2023-02-02T09:41:44;102704.72;;;10.32;78.27
71424;BME280;59240;51.370;-0.486;2023-02-02T09:52:58;102670.69;;;10.21;76.40
71424;BME280;59240;51.370;-0.486;2023-02-02T09:55:37;102691.75;;;10.39;76.53
71424;BME280;59240;51.370;-0.486;2023-02-02T09:58:15;102714.47;;;10.53;75.92
71424;BME280;59240;51.370;-0.486;2023-02-02T10:03:15;102724.19;;;10.71;76.49
71424;BME280;59240;51.370;-0.486;2023-02-02T10:05:50;102712.84;;;10.67;76.39
71424;BME280;59240;51.370;-0.486;2023-02-02T10:08:35;102705.94;;;10.75;75.67
71424;BME280;59240;51.370;-0.486;2023-02-02T10:11:25;102706.00;;;10.78;76.00
71424;BME280;59240;51.370;-0.486;2023-02-02T10:13:59;102724.34;;;10.93;76.10
71424;BME280;59240;51.370;-0.486;2023-02-02T10:16:28;102664.13;;;10.63;75.72
71424;BME280;59240;51.370;-0.486;2023-02-02T10:19:10;102713.06;;;10.94;76.10
71424;BME280;59240;51.370;-0.486;2023-02-02T10:22:03;102741.06;;;11.20;76.15
71424;BME280;59240;51.370;-0.486;2023-02-02T10:24:32;102732.41;;;11.27;75.58
71424;BME280;59240;51.370;-0.486;2023-02-02T10:27:10;102736.81;;;11.34;75.83
71424;BME280;59240;51.370;-0.486;2023-02-02T10:29:52;102677.50;;;11.07;75.84
71424;BME280;59240;51.370;-0.486;2023-02-02T10:32:24;102722.06;;;11.42;75.57
71424;BME280;59240;51.370;-0.486;2023-02-02T10:38:01;102711.63;;;11.39;74.66
71424;BME280;59240;51.370;-0.486;2023-02-02T10:40:43;102751.75;;;11.66;74.52
71424;BME280;59240;51.370;-0.486;2023-02-02T10:46:32;102716.88;;;11.48;73.53
71424;BME280;59240;51.370;-0.486;2023-02-02T10:49:30;102751.81;;;11.75;73.65
71424;BME280;59240;51.370;-0.486;2023-02-02T11:00:22;102718.91;;;12.20;72.74
71424;BME280;59240;51.370;-0.486;2023-02-02T11:02:51;102719.84;;;12.36;72.86
71424;BME280;59240;51.370;-0.486;2023-02-02T11:05:26;102724.22;;;12.56;72.49
71424;BME280;59240;51.370;-0.486;2023-02-02T11:08:17;102729.47;;;12.78;72.77
71424;BME280;59240;51.370;-0.486;2023-02-02T11:10:46;102727.69;;;12.83;71.22
71424;BME280;59240;51.370;-0.486;2023-02-02T11:13:40;102719.00;;;12.78;71.03
71424;BME280;59240;51.370;-0.486;2023-02-02T11:16:18;102714.63;;;12.84;70.71
71424;BME280;59240;51.370;-0.486;2023-02-02T11:18:47;102731.19;;;12.97;71.47
71424;BME280;59240;51.370;-0.486;2023-02-02T11:21:19;102732.06;;;13.01;71.70
71424;BME280;59240;51.370;-0.486;2023-02-02T11:23:54;102739.91;;;12.99;70.09
71424;BME280;59240;51.370;-0.486;2023-02-02T11:26:23;102730.28;;;12.97;70.99
71424;BME280;59240;51.370;-0.486;2023-02-02T11:28:52;102688.47;;;12.74;71.27
71424;BME280;59240;51.370;-0.486;2023-02-02T11:31:36;102712.00;;;12.86;70.65
71424;BME280;59240;51.370;-0.486;2023-02-02T11:34:08;102719.84;;;12.95;70.76
71424;BME280;59240;51.370;-0.486;2023-02-02T11:36:37;102682.38;;;12.75;71.41
71424;BME280;59240;51.370;-0.486;2023-02-02T11:39:14;102717.22;;;13.01;70.00
71424;BME280;59240;51.370;-0.486;2023-02-02T11:41:41;102689.31;;;13.06;70.12
71424;BME280;59240;51.370;-0.486;2023-02-02T11:44:26;102718.09;;;13.32;69.86
71424;BME280;59240;51.370;-0.486;2023-02-02T11:46:56;102680.56;;;13.13;69.81
71424;BME280;59240;51.370;-0.486;2023-02-02T11:49:31;102700.66;;;13.27;69.85
71424;BME280;59240;51.370;-0.486;2023-02-02T11:52:01;102691.03;;;13.17;68.30
71424;BME280;59240;51.370;-0.486;2023-02-02T11:54:32;102683.22;;;13.06;68.80
71424;BME280;59240;51.370;-0.486;2023-02-02T11:57:02;102690.19;;;13.05;70.05
71424;BME280;59240;51.370;-0.486;2023-02-02T11:59:43;102695.41;;;13.01;68.45
71424;BME280;59240;51.370;-0.486;2023-02-02T12:02:24;102704.13;;;13.07;69.36
71424;BME280;59240;51.370;-0.486;2023-02-02T12:07:45;102655.34;;;12.85;69.62
71424;BME280;59240;51.370;-0.486;2023-02-02T12:13:44;102669.28;;;12.76;69.23
71424;BME280;59240;51.370;-0.486;2023-02-02T12:16:39;102691.09;;;12.86;69.36
71424;BME280;59240;51.370;-0.486;2023-02-02T12:22:09;102678.88;;;12.76;69.61
71424;BME280;59240;51.370;-0.486;2023-02-02T12:25:05;102647.50;;;12.60;69.66
71424;BME280;59240;51.370;-0.486;2023-02-02T12:30:36;102624.88;;;12.52;70.10
71424;BME280;59240;51.370;-0.486;2023-02-02T12:47:42;102659.69;;;12.94;68.81
71424;BME280;59240;51.370;-0.486;2023-02-02T12:53:33;102655.34;;;12.91;69.42
71424;BME280;59240;51.370;-0.486;2023-02-02T12:56:10;102654.44;;;12.89;69.59
71424;BME280;59240;51.370;-0.486;2023-02-02T12:58:48;102614.41;;;12.50;70.18
71424;BME280;59240;51.370;-0.486;2023-02-02T13:04:25;102657.97;;;12.70;70.95
71424;BME280;59240;51.370;-0.486;2023-02-02T13:07:19;102654.47;;;12.68;71.22
71424;BME280;59240;51.370;-0.486;2023-02-02T13:10:08;102603.97;;;12.38;71.18
71424;BME280;59240;51.370;-0.486;2023-02-02T13:12:54;102653.63;;;12.58;71.46
71424;BME280;59240;51.370;-0.486;2023-02-02T13:15:28;102612.66;;;12.28;71.56
71424;BME280;59240;51.370;-0.486;2023-02-02T13:18:02;102610.91;;;12.27;71.81
71424;BME280;59240;51.370;-0.486;2023-02-02T13:20:38;102619.63;;;12.35;71.44
71424;BME280;59240;51.370;-0.486;2023-02-02T13:23:12;102615.28;;;12.34;71.47
71424;BME280;59240;51.370;-0.486;2023-02-02T13:28:56;102617.91;;;12.31;71.59
71424;BME280;59240;51.370;-0.486;2023-02-02T13:31:39;102644.91;;;12.38;71.95
71424;BME280;59240;51.370;-0.486;2023-02-02T13:34:17;102637.94;;;12.29;71.99
71424;BME280;59240;51.370;-0.486;2023-02-02T13:39:55;102627.47;;;12.38;71.62
71424;BME280;59240;51.370;-0.486;2023-02-02T13:45:36;102654.47;;;12.62;71.66
71424;BME280;59240;51.370;-0.486;2023-02-02T13:48:43;102653.63;;;12.59;71.68
71424;BME280;59240;51.370;-0.486;2023-02-02T13:54:05;102646.66;;;12.65;71.48
71424;BME280;59240;51.370;-0.486;2023-02-02T13:57:03;102640.53;;;12.69;70.85
71424;BME280;59240;51.370;-0.486;2023-02-02T14:02:47;102612.63;;;12.62;70.73
71424;BME280;59240;51.370;-0.486;2023-02-02T14:05:28;102650.97;;;12.81;70.46
71424;BME280;59240;51.370;-0.486;2023-02-02T14:08:03;102617.88;;;12.65;69.87
71424;BME280;59240;51.370;-0.486;2023-02-02T14:10:41;102639.66;;;12.67;69.90
71424;BME280;59240;51.370;-0.486;2023-02-02T14:16:00;102601.31;;;12.61;70.69
71424;BME280;59240;51.370;-0.486;2023-02-02T14:26:59;102637.03;;;12.76;70.15
71424;BME280;59240;51.370;-0.486;2023-02-02T14:31:58;102644.00;;;12.83;69.71
71424;BME280;59240;51.370;-0.486;2023-02-02T14:34:29;102642.28;;;12.85;69.67
71424;BME280;59240;51.370;-0.486;2023-02-02T14:37:19;102606.56;;;12.70;69.05
71424;BME280;59240;51.370;-0.486;2023-02-02T14:45:37;102622.22;;;12.85;69.37
71424;BME280;59240;51.370;-0.486;2023-02-02T14:50:55;102623.94;;;12.91;69.11
71424;BME280;59240;51.370;-0.486;2023-02-02T14:53:24;102637.03;;;12.97;68.33
71424;BME280;59240;51.370;-0.486;2023-02-02T14:55:56;102616.13;;;12.85;68.51
71424;BME280;59240;51.370;-0.486;2023-02-02T14:58:31;102594.31;;;12.81;67.74
71424;BME280;59240;51.370;-0.486;2023-02-02T15:06:34;102625.63;;;13.03;67.23
71424;BME280;59240;51.370;-0.486;2023-02-02T15:17:08;102639.56;;;13.19;66.97
71424;BME280;59240;51.370;-0.486;2023-02-02T15:19:41;102601.25;;;12.96;67.54
71424;BME280;59240;51.370;-0.486;2023-02-02T15:22:29;102649.19;;;13.26;68.10
71424;BME280;59240;51.370;-0.486;2023-02-02T15:24:59;102643.94;;;13.27;68.14